Ana Sayfa
METAR-TAF:

METAR-TAF

Havaalanları :

La Paz, Meksika

Enlem: 24-04N, Boylam: 110-22W, yükseklik: 21 m

Güncel hava durumu gözlemi

Rapor saat 12:08 UTC de 25 dakika önce yapıldı.
Rüzgar güneydan 8 kt
Sıcaklık 22°C
Nem 35%
Basınç 1013 hPa
Görüş mesafesi: 16.1 km
Açık gökyüzü

METAR: MMLP 271208Z RTD 17008KT 10SM SKC 22/06 A2991 RMK SLP126 5//// 911 ISOL AC CI RTS

Saat: 06:33 (12:33 UTC)

Tahmin

Rapor saat 03:15 UTC de 9 saat ve 18 dakika önce yapıldı.
Ayın 27'si saat 06 UTC'den ayın 28'si saat 06 UTC'ye kadar geçerli Tahmin
Rüzgar güneydan 7 kt
Görüş mesafesi: 10 km
Açık gökyüzü
Ayın 27'si saat 1800 UTC'den
Rüzgar kuzey/kuzeybatıdan 14 kt
Görüş mesafesi: 10 km
25000 ft yükseklikte parçalı bulutlu
Ayın 28'si saat 0500 UTC'den
Rüzgar güneydan 7 kt
Görüş mesafesi: 10 km
Açık gökyüzü

TAF: MMLP 270315Z 2706/2806 19007KT P6SM SKC FM271800 34014KT P6SM SCT250 FM280500 19007KT P6SM SKC

4.000'den fazla havaalanı için hava durumu gözlemleri ve tahminleri (METAR ve TAF raporları).

Kullanılabilir istasyonlar harita üzerinde sarı ve kırmızı noktalarla gösterilir.

İstasyonun adını görmek için fareyi noktanın üzerinde gezdirin.

Sonrasında hava gözlem ve tahminlerini görmek için tıklayın.

Haritayı değiştirmek için: yaklaştırmak için siyah artı işaretli yeşil düğmeye ve uzaklaştırmak için de eksi işaretli düğmeye hızla tıklayın; bitişik haritalar için yeşil okları kullanın.


METAR-TAF: